CDT,Max TemperatureF,Mean TemperatureF,Min TemperatureF,Max Dew PointF,MeanDew PointF,Min DewpointF,Max Humidity, Mean Humidity, Min Humidity, Max Sea Level PressureIn, Mean Sea Level PressureIn, Min Sea Level PressureIn, Max VisibilityMiles, Mean VisibilityMiles, Min VisibilityMiles, Max Wind SpeedMPH, Mean Wind SpeedMPH, Max Gust SpeedMPH,PrecipitationIn, CloudCover, Events, WindDirDegrees
2013-9-1,78,68,57,72,65,57,100,89,73,29.83,29.77,29.71,10,9,0,14,3,16,0.21,,Thunderstorm,224
2013-9-2,66,60,53,63,56,52,100,81,64,30.01,29.94,29.83,10,10,9,16,5,18,0.00,,,341
2013-9-3,73,60,48,55,52,45,100,72,36,30.08,30.03,29.98,10,10,7,12,5,16,0.00,,,282
2013-9-4,72,62,57,59,56,54,97,86,77,30.18,30.05,30.00,10,10,4,12,4,17,0.00,1,,287
2013-9-5,66,57,48,54,49,46,96,71,54,30.38,30.29,30.18,10,7,0,13,6,,0.03,0,,74
2013-9-6,75,62,48,65,56,46,96,76,53,30.31,30.18,30.00,10,10,10,18,5,24,0.00,0,,192
2013-9-7,84,75,66,71,66,60,87,77,60,30.09,29.97,29.88,10,10,9,15,6,28,0.09,5,Rain,277
2013-9-8,71,64,57,60,57,55,93,78,59,30.18,30.12,30.05,10,10,9,14,7,24,0.00,2,,38
2013-9-9,84,72,66,73,67,61,97,88,67,30.04,29.91,29.78,10,6,2,17,8,23,0.63,6,Rain-Thunderstorm,166
2013-9-10,91,82,72,70,66,64,84,58,39,30.01,29.89,29.79,10,10,10,18,12,28,0.00,1,Rain,270
2013-9-11,79,72,66,67,65,60,97,77,58,30.07,30.01,29.97,10,10,4,12,5,21,0.00,2,Rain-Thunderstorm,266
2013-9-12,71,62,51,58,53,43,96,75,53,30.22,30.09,30.01,10,10,10,14,6,21,0.05,4,Rain,360
2013-9-13,60,52,44,45,43,40,96,71,47,30.30,30.26,30.22,10,10,10,13,9,17,0.00,1,,11
2013-9-14,68,56,43,51,46,42,97,69,42,30.26,30.17,30.06,10,10,10,16,4,,0.00,0,,217
2013-9-15,62,56,48,55,52,41,100,85,67,30.36,30.12,30.04,10,8,2,15,3,22,0.30,7,Rain,353
2013-9-16,57,50,41,44,42,40,96,74,57,30.51,30.44,30.31,10,10,4,12,8,17,0.00,3,,10
2013-9-17,64,51,39,54,48,38,97,82,68,30.45,30.31,30.15,10,10,10,16,4,23,0.00,4,,163
2013-9-18,71,65,60,64,60,55,93,83,75,30.17,30.04,29.92,10,9,4,21,11,28,0.25,5,Rain,183
2013-9-19,79,70,64,70,66,63,94,88,76,29.95,29.86,29.74,10,6,2,22,9,28,0.50,5,Rain-Thunderstorm,184
2013-9-20,72,65,59,66,61,54,94,81,63,29.84,29.76,29.70,10,10,8,16,9,25,0.05,5,Rain,264
2013-9-21,60,52,46,52,47,41,89,78,67,30.06,29.93,29.80,10,10,10,14,8,21,0.00,6,,331
2013-9-22,55,47,39,43,41,36,96,77,59,30.19,30.14,30.07,10,10,10,9,5,,0.00,3,,11
2013-9-23,60,48,37,47,43,37,100,80,60,30.25,30.19,30.12,10,10,5,14,5,20,0.00,3,,134
2013-9-24,64,53,42,56,48,42,100,87,67,30.19,30.12,30.01,10,7,1,14,5,16,0.00,2,,4
2013-9-25,66,55,44,56,47,43,100,92,56,30.12,30.04,30.00,10,3,0,10,2,,0.00,7,Fog,351
2013-9-26,69,56,44,59,49,44,100,93,68,30.19,30.11,30.02,10,3,0,13,2,,0.01,6,Fog-Rain,64
2013-9-27,71,58,44,60,50,43,100,92,61,30.25,30.17,30.10,10,4,0,15,2,22,0.01,4,Fog,180
2013-9-28,70,62,55,64,59,54,94,83,73,30.14,30.00,29.86,10,9,3,22,14,29,0.35,3,Rain,197
2013-9-29,66,57,48,54,49,45,97,77,47,30.12,30.07,29.94,10,10,4,13,7,,0.02,1,Rain,260
2013-9-30,68,56,45,54,48,42,97,72,43,30.07,29.99,29.90,10,10,9,20,6,25,0.00,0,,186